sensor_id;sensor_type;location;lat;lon;timestamp;P1;durP1;ratioP1;P2;durP2;ratioP2
68989;SDS011;56046;47.270;11.368;2023-05-21T00:01:00;8.30;;;3.90;;
68989;SDS011;56046;47.270;11.368;2023-05-21T00:03:25;7.20;;;3.90;;
68989;SDS011;56046;47.270;11.368;2023-05-21T00:05:52;8.60;;;4.57;;
68989;SDS011;56046;47.270;11.368;2023-05-21T00:08:17;8.27;;;4.30;;
68989;SDS011;56046;47.270;11.368;2023-05-21T00:10:42;10.20;;;4.50;;
68989;SDS011;56046;47.270;11.368;2023-05-21T00:13:07;8.47;;;4.20;;
68989;SDS011;56046;47.270;11.368;2023-05-21T00:15:34;7.80;;;4.00;;
68989;SDS011;56046;47.270;11.368;2023-05-21T00:17:59;7.82;;;4.32;;
68989;SDS011;56046;47.270;11.368;2023-05-21T00:20:25;8.50;;;4.80;;
68989;SDS011;56046;47.270;11.368;2023-05-21T00:22:53;8.93;;;4.60;;
68989;SDS011;56046;47.270;11.368;2023-05-21T00:25:18;8.37;;;4.40;;
68989;SDS011;56046;47.270;11.368;2023-05-21T00:27:43;8.57;;;4.67;;
68989;SDS011;56046;47.270;11.368;2023-05-21T00:30:09;8.23;;;4.03;;
68989;SDS011;56046;47.270;11.368;2023-05-21T00:32:35;9.23;;;5.10;;
68989;SDS011;56046;47.270;11.368;2023-05-21T00:35:00;10.20;;;4.70;;
68989;SDS011;56046;47.270;11.368;2023-05-21T00:37:26;7.63;;;4.57;;
68989;SDS011;56046;47.270;11.368;2023-05-21T00:39:58;9.77;;;4.80;;
68989;SDS011;56046;47.270;11.368;2023-05-21T00:42:23;8.03;;;4.17;;
68989;SDS011;56046;47.270;11.368;2023-05-21T00:44:51;9.52;;;4.03;;
68989;SDS011;56046;47.270;11.368;2023-05-21T00:47:18;9.15;;;4.40;;
68989;SDS011;56046;47.270;11.368;2023-05-21T00:49:45;7.77;;;4.80;;
68989;SDS011;56046;47.270;11.368;2023-05-21T00:52:12;8.60;;;4.38;;
68989;SDS011;56046;47.270;11.368;2023-05-21T00:54:37;7.80;;;4.40;;
68989;SDS011;56046;47.270;11.368;2023-05-21T00:57:03;10.30;;;4.43;;
68989;SDS011;56046;47.270;11.368;2023-05-21T00:59:28;8.33;;;4.93;;
68989;SDS011;56046;47.270;11.368;2023-05-21T01:01:55;8.88;;;4.80;;
68989;SDS011;56046;47.270;11.368;2023-05-21T01:04:23;8.07;;;4.63;;
68989;SDS011;56046;47.270;11.368;2023-05-21T01:06:49;7.80;;;4.50;;
68989;SDS011;56046;47.270;11.368;2023-05-21T01:09:14;9.77;;;5.07;;
68989;SDS011;56046;47.270;11.368;2023-05-21T01:11:41;8.87;;;4.70;;
68989;SDS011;56046;47.270;11.368;2023-05-21T01:14:07;8.60;;;5.05;;
68989;SDS011;56046;47.270;11.368;2023-05-21T01:16:38;7.90;;;4.50;;
68989;SDS011;56046;47.270;11.368;2023-05-21T01:19:03;8.88;;;4.80;;
68989;SDS011;56046;47.270;11.368;2023-05-21T01:21:29;7.97;;;4.95;;
68989;SDS011;56046;47.270;11.368;2023-05-21T01:23:55;8.20;;;4.83;;
68989;SDS011;56046;47.270;11.368;2023-05-21T01:26:20;8.90;;;5.10;;
68989;SDS011;56046;47.270;11.368;2023-05-21T01:28:45;8.10;;;4.65;;
68989;SDS011;56046;47.270;11.368;2023-05-21T01:31:18;8.83;;;5.03;;
68989;SDS011;56046;47.270;11.368;2023-05-21T01:33:47;10.93;;;4.78;;
68989;SDS011;56046;47.270;11.368;2023-05-21T01:36:17;8.43;;;4.75;;
68989;SDS011;56046;47.270;11.368;2023-05-21T01:38:56;10.00;;;5.38;;
68989;SDS011;56046;47.270;11.368;2023-05-21T01:41:24;10.25;;;5.60;;
68989;SDS011;56046;47.270;11.368;2023-05-21T01:43:51;9.57;;;5.40;;
68989;SDS011;56046;47.270;11.368;2023-05-21T01:46:18;8.90;;;4.82;;
68989;SDS011;56046;47.270;11.368;2023-05-21T01:48:45;10.13;;;5.32;;
68989;SDS011;56046;47.270;11.368;2023-05-21T01:51:11;8.68;;;5.07;;
68989;SDS011;56046;47.270;11.368;2023-05-21T01:53:37;9.57;;;5.20;;
68989;SDS011;56046;47.270;11.368;2023-05-21T01:56:04;10.77;;;5.15;;
68989;SDS011;56046;47.270;11.368;2023-05-21T01:58:30;8.67;;;4.90;;
68989;SDS011;56046;47.270;11.368;2023-05-21T02:00:55;9.33;;;5.13;;
68989;SDS011;56046;47.270;11.368;2023-05-21T02:03:21;11.03;;;5.93;;
68989;SDS011;56046;47.270;11.368;2023-05-21T02:05:47;8.57;;;5.13;;
68989;SDS011;56046;47.270;11.368;2023-05-21T02:08:12;9.33;;;4.93;;
68989;SDS011;56046;47.270;11.368;2023-05-21T02:10:39;10.50;;;5.82;;
68989;SDS011;56046;47.270;11.368;2023-05-21T02:13:04;9.57;;;6.03;;
68989;SDS011;56046;47.270;11.368;2023-05-21T02:15:29;10.73;;;5.83;;
68989;SDS011;56046;47.270;11.368;2023-05-21T02:17:54;10.33;;;5.87;;
68989;SDS011;56046;47.270;11.368;2023-05-21T02:20:20;9.73;;;5.73;;
68989;SDS011;56046;47.270;11.368;2023-05-21T02:22:46;10.30;;;5.80;;
68989;SDS011;56046;47.270;11.368;2023-05-21T02:25:12;8.98;;;5.45;;
68989;SDS011;56046;47.270;11.368;2023-05-21T02:27:38;10.63;;;5.97;;
68989;SDS011;56046;47.270;11.368;2023-05-21T02:30:05;10.18;;;5.88;;
68989;SDS011;56046;47.270;11.368;2023-05-21T02:32:31;10.45;;;5.90;;
68989;SDS011;56046;47.270;11.368;2023-05-21T02:34:57;9.73;;;5.43;;
68989;SDS011;56046;47.270;11.368;2023-05-21T02:37:23;9.80;;;5.55;;
68989;SDS011;56046;47.270;11.368;2023-05-21T02:39:49;9.18;;;5.28;;
68989;SDS011;56046;47.270;11.368;2023-05-21T02:42:14;11.47;;;6.00;;
68989;SDS011;56046;47.270;11.368;2023-05-21T02:44:40;10.87;;;5.87;;
68989;SDS011;56046;47.270;11.368;2023-05-21T02:47:05;10.40;;;5.67;;
68989;SDS011;56046;47.270;11.368;2023-05-21T02:49:32;11.25;;;5.75;;
68989;SDS011;56046;47.270;11.368;2023-05-21T02:51:57;10.53;;;6.43;;
68989;SDS011;56046;47.270;11.368;2023-05-21T02:54:22;12.23;;;5.90;;
68989;SDS011;56046;47.270;11.368;2023-05-21T02:56:48;10.53;;;4.90;;
68989;SDS011;56046;47.270;11.368;2023-05-21T02:59:13;10.80;;;5.27;;
68989;SDS011;56046;47.270;11.368;2023-05-21T03:01:38;10.53;;;5.67;;
68989;SDS011;56046;47.270;11.368;2023-05-21T03:04:05;10.98;;;5.50;;
68989;SDS011;56046;47.270;11.368;2023-05-21T03:06:30;10.63;;;5.37;;
68989;SDS011;56046;47.270;11.368;2023-05-21T03:08:56;9.70;;;5.38;;
68989;SDS011;56046;47.270;11.368;2023-05-21T03:11:21;8.90;;;5.23;;
68989;SDS011;56046;47.270;11.368;2023-05-21T03:13:46;9.40;;;5.27;;
68989;SDS011;56046;47.270;11.368;2023-05-21T03:16:11;9.83;;;5.67;;
68989;SDS011;56046;47.270;11.368;2023-05-21T03:18:38;9.65;;;4.78;;
68989;SDS011;56046;47.270;11.368;2023-05-21T03:21:03;9.47;;;4.73;;
68989;SDS011;56046;47.270;11.368;2023-05-21T03:23:29;9.23;;;5.03;;
68989;SDS011;56046;47.270;11.368;2023-05-21T03:25:54;10.50;;;6.13;;
68989;SDS011;56046;47.270;11.368;2023-05-21T03:28:20;8.97;;;5.10;;
68989;SDS011;56046;47.270;11.368;2023-05-21T03:30:45;8.53;;;5.40;;
68989;SDS011;56046;47.270;11.368;2023-05-21T03:33:13;10.77;;;5.27;;
68989;SDS011;56046;47.270;11.368;2023-05-21T03:35:39;11.27;;;5.65;;
68989;SDS011;56046;47.270;11.368;2023-05-21T03:38:04;11.03;;;5.50;;
68989;SDS011;56046;47.270;11.368;2023-05-21T03:40:30;12.13;;;5.77;;
68989;SDS011;56046;47.270;11.368;2023-05-21T03:42:55;8.63;;;4.73;;
68989;SDS011;56046;47.270;11.368;2023-05-21T03:45:20;9.43;;;5.50;;
68989;SDS011;56046;47.270;11.368;2023-05-21T03:47:45;10.27;;;5.60;;
68989;SDS011;56046;47.270;11.368;2023-05-21T03:50:12;10.98;;;5.78;;
68989;SDS011;56046;47.270;11.368;2023-05-21T03:52:38;9.27;;;5.60;;
68989;SDS011;56046;47.270;11.368;2023-05-21T03:55:03;9.67;;;5.70;;
68989;SDS011;56046;47.270;11.368;2023-05-21T03:57:28;10.67;;;6.07;;
68989;SDS011;56046;47.270;11.368;2023-05-21T03:59:53;9.87;;;5.20;;
68989;SDS011;56046;47.270;11.368;2023-05-21T04:02:20;9.38;;;5.20;;
68989;SDS011;56046;47.270;11.368;2023-05-21T04:04:45;9.50;;;5.45;;
68989;SDS011;56046;47.270;11.368;2023-05-21T04:07:11;10.20;;;5.37;;
68989;SDS011;56046;47.270;11.368;2023-05-21T04:09:39;9.15;;;5.30;;
68989;SDS011;56046;47.270;11.368;2023-05-21T04:12:05;10.18;;;5.70;;
68989;SDS011;56046;47.270;11.368;2023-05-21T04:14:31;9.52;;;5.63;;
68989;SDS011;56046;47.270;11.368;2023-05-21T04:16:57;9.60;;;5.60;;
68989;SDS011;56046;47.270;11.368;2023-05-21T04:19:22;11.57;;;5.90;;
68989;SDS011;56046;47.270;11.368;2023-05-21T04:21:47;10.23;;;5.43;;
68989;SDS011;56046;47.270;11.368;2023-05-21T04:24:12;10.67;;;5.97;;
68989;SDS011;56046;47.270;11.368;2023-05-21T04:26:38;11.67;;;5.90;;
68989;SDS011;56046;47.270;11.368;2023-05-21T04:29:05;12.00;;;6.43;;
68989;SDS011;56046;47.270;11.368;2023-05-21T04:31:31;11.13;;;6.00;;
68989;SDS011;56046;47.270;11.368;2023-05-21T04:33:56;10.10;;;5.93;;
68989;SDS011;56046;47.270;11.368;2023-05-21T04:36:22;13.10;;;5.63;;
68989;SDS011;56046;47.270;11.368;2023-05-21T04:38:48;11.85;;;6.00;;
68989;SDS011;56046;47.270;11.368;2023-05-21T04:41:13;10.70;;;5.77;;
68989;SDS011;56046;47.270;11.368;2023-05-21T04:43:39;12.02;;;6.22;;
68989;SDS011;56046;47.270;11.368;2023-05-21T04:46:07;12.13;;;5.97;;
68989;SDS011;56046;47.270;11.368;2023-05-21T04:48:33;11.77;;;6.20;;
68989;SDS011;56046;47.270;11.368;2023-05-21T04:50:58;10.50;;;6.00;;
68989;SDS011;56046;47.270;11.368;2023-05-21T04:53:23;11.93;;;6.67;;
68989;SDS011;56046;47.270;11.368;2023-05-21T04:55:49;11.70;;;6.15;;
68989;SDS011;56046;47.270;11.368;2023-05-21T04:58:15;10.43;;;6.63;;
68989;SDS011;56046;47.270;11.368;2023-05-21T05:00:43;9.98;;;5.75;;
68989;SDS011;56046;47.270;11.368;2023-05-21T05:03:10;10.03;;;6.17;;
68989;SDS011;56046;47.270;11.368;2023-05-21T05:05:35;10.80;;;5.53;;
68989;SDS011;56046;47.270;11.368;2023-05-21T05:08:00;11.27;;;6.70;;
68989;SDS011;56046;47.270;11.368;2023-05-21T05:10:26;10.53;;;6.43;;
68989;SDS011;56046;47.270;11.368;2023-05-21T05:12:51;12.13;;;6.03;;
68989;SDS011;56046;47.270;11.368;2023-05-21T05:15:16;11.10;;;6.13;;
68989;SDS011;56046;47.270;11.368;2023-05-21T05:17:42;12.07;;;5.83;;
68989;SDS011;56046;47.270;11.368;2023-05-21T05:20:08;10.30;;;6.23;;
68989;SDS011;56046;47.270;11.368;2023-05-21T05:22:34;12.20;;;6.72;;
68989;SDS011;56046;47.270;11.368;2023-05-21T05:25:00;10.80;;;6.10;;
68989;SDS011;56046;47.270;11.368;2023-05-21T05:27:25;10.87;;;6.10;;
68989;SDS011;56046;47.270;11.368;2023-05-21T05:29:50;15.97;;;7.37;;
68989;SDS011;56046;47.270;11.368;2023-05-21T05:32:16;11.50;;;6.40;;
68989;SDS011;56046;47.270;11.368;2023-05-21T05:34:41;10.93;;;6.27;;
68989;SDS011;56046;47.270;11.368;2023-05-21T05:37:07;11.80;;;6.50;;
68989;SDS011;56046;47.270;11.368;2023-05-21T05:39:32;9.80;;;6.50;;
68989;SDS011;56046;47.270;11.368;2023-05-21T05:41:57;11.47;;;6.00;;
68989;SDS011;56046;47.270;11.368;2023-05-21T05:44:23;11.20;;;6.40;;
68989;SDS011;56046;47.270;11.368;2023-05-21T05:46:48;24.10;;;11.80;;
68989;SDS011;56046;47.270;11.368;2023-05-21T05:49:13;20.97;;;10.03;;
68989;SDS011;56046;47.270;11.368;2023-05-21T05:51:39;13.43;;;7.50;;
68989;SDS011;56046;47.270;11.368;2023-05-21T05:54:04;12.20;;;6.88;;
68989;SDS011;56046;47.270;11.368;2023-05-21T05:56:30;10.33;;;5.33;;
68989;SDS011;56046;47.270;11.368;2023-05-21T05:58:55;13.70;;;7.73;;
68989;SDS011;56046;47.270;11.368;2023-05-21T06:01:20;12.10;;;6.10;;
68989;SDS011;56046;47.270;11.368;2023-05-21T06:03:48;11.00;;;5.50;;
68989;SDS011;56046;47.270;11.368;2023-05-21T06:06:13;12.77;;;7.57;;
68989;SDS011;56046;47.270;11.368;2023-05-21T06:08:39;13.20;;;6.80;;
68989;SDS011;56046;47.270;11.368;2023-05-21T06:11:04;9.73;;;5.90;;
68989;SDS011;56046;47.270;11.368;2023-05-21T06:13:29;8.43;;;5.13;;
68989;SDS011;56046;47.270;11.368;2023-05-21T06:15:55;20.13;;;10.38;;
68989;SDS011;56046;47.270;11.368;2023-05-21T06:18:21;10.27;;;5.67;;
68989;SDS011;56046;47.270;11.368;2023-05-21T06:20:46;10.47;;;6.07;;
68989;SDS011;56046;47.270;11.368;2023-05-21T06:23:11;8.90;;;5.43;;
68989;SDS011;56046;47.270;11.368;2023-05-21T06:25:37;9.30;;;5.70;;
68989;SDS011;56046;47.270;11.368;2023-05-21T06:28:04;9.63;;;5.45;;
68989;SDS011;56046;47.270;11.368;2023-05-21T06:30:29;8.83;;;6.03;;
68989;SDS011;56046;47.270;11.368;2023-05-21T06:32:55;12.93;;;5.53;;
68989;SDS011;56046;47.270;11.368;2023-05-21T06:35:21;8.57;;;5.70;;
68989;SDS011;56046;47.270;11.368;2023-05-21T06:37:46;8.73;;;5.33;;
68989;SDS011;56046;47.270;11.368;2023-05-21T06:40:12;9.65;;;6.10;;
68989;SDS011;56046;47.270;11.368;2023-05-21T06:42:37;8.70;;;5.33;;
68989;SDS011;56046;47.270;11.368;2023-05-21T06:45:03;12.30;;;5.13;;
68989;SDS011;56046;47.270;11.368;2023-05-21T06:47:28;9.10;;;5.90;;
68989;SDS011;56046;47.270;11.368;2023-05-21T06:49:53;9.90;;;5.40;;
68989;SDS011;56046;47.270;11.368;2023-05-21T06:52:19;10.97;;;6.00;;
68989;SDS011;56046;47.270;11.368;2023-05-21T06:54:44;9.43;;;5.87;;
68989;SDS011;56046;47.270;11.368;2023-05-21T06:57:09;9.27;;;5.72;;
68989;SDS011;56046;47.270;11.368;2023-05-21T06:59:35;8.47;;;5.23;;
68989;SDS011;56046;47.270;11.368;2023-05-21T07:02:00;9.73;;;5.70;;
68989;SDS011;56046;47.270;11.368;2023-05-21T07:04:25;8.60;;;5.33;;
68989;SDS011;56046;47.270;11.368;2023-05-21T07:06:51;8.77;;;5.40;;
68989;SDS011;56046;47.270;11.368;2023-05-21T07:09:17;8.43;;;5.70;;
68989;SDS011;56046;47.270;11.368;2023-05-21T07:11:42;9.07;;;5.17;;
68989;SDS011;56046;47.270;11.368;2023-05-21T07:14:08;7.97;;;5.37;;
68989;SDS011;56046;47.270;11.368;2023-05-21T07:16:33;7.97;;;5.03;;
68989;SDS011;56046;47.270;11.368;2023-05-21T07:18:58;8.03;;;4.67;;
68989;SDS011;56046;47.270;11.368;2023-05-21T07:21:24;9.23;;;4.83;;
68989;SDS011;56046;47.270;11.368;2023-05-21T07:23:49;7.73;;;5.30;;
68989;SDS011;56046;47.270;11.368;2023-05-21T07:26:14;7.90;;;4.60;;
68989;SDS011;56046;47.270;11.368;2023-05-21T07:28:40;8.27;;;5.13;;
68989;SDS011;56046;47.270;11.368;2023-05-21T07:31:05;8.40;;;5.67;;
68989;SDS011;56046;47.270;11.368;2023-05-21T07:33:32;9.38;;;5.13;;
68989;SDS011;56046;47.270;11.368;2023-05-21T07:35:57;7.80;;;4.87;;
68989;SDS011;56046;47.270;11.368;2023-05-21T07:38:22;7.63;;;5.00;;
68989;SDS011;56046;47.270;11.368;2023-05-21T07:40:48;7.23;;;4.70;;
68989;SDS011;56046;47.270;11.368;2023-05-21T07:43:13;6.83;;;4.93;;
68989;SDS011;56046;47.270;11.368;2023-05-21T07:45:38;7.07;;;4.37;;
68989;SDS011;56046;47.270;11.368;2023-05-21T07:48:03;6.33;;;4.30;;
68989;SDS011;56046;47.270;11.368;2023-05-21T07:50:29;9.13;;;4.80;;
68989;SDS011;56046;47.270;11.368;2023-05-21T07:52:55;7.20;;;4.07;;
68989;SDS011;56046;47.270;11.368;2023-05-21T07:55:20;7.60;;;4.97;;
68989;SDS011;56046;47.270;11.368;2023-05-21T07:57:45;6.80;;;4.50;;
68989;SDS011;56046;47.270;11.368;2023-05-21T08:00:11;7.60;;;4.70;;
68989;SDS011;56046;47.270;11.368;2023-05-21T08:02:39;9.32;;;5.10;;
68989;SDS011;56046;47.270;11.368;2023-05-21T08:05:04;8.03;;;5.40;;
68989;SDS011;56046;47.270;11.368;2023-05-21T08:07:30;7.53;;;5.00;;
68989;SDS011;56046;47.270;11.368;2023-05-21T08:09:56;6.78;;;4.72;;
68989;SDS011;56046;47.270;11.368;2023-05-21T08:12:21;7.03;;;4.30;;
68989;SDS011;56046;47.270;11.368;2023-05-21T08:14:46;8.63;;;5.40;;
68989;SDS011;56046;47.270;11.368;2023-05-21T08:17:12;8.43;;;5.00;;
68989;SDS011;56046;47.270;11.368;2023-05-21T08:19:37;7.87;;;5.37;;
68989;SDS011;56046;47.270;11.368;2023-05-21T08:22:03;7.63;;;5.53;;
68989;SDS011;56046;47.270;11.368;2023-05-21T08:24:30;7.10;;;4.63;;
68989;SDS011;56046;47.270;11.368;2023-05-21T08:26:56;10.27;;;5.05;;
68989;SDS011;56046;47.270;11.368;2023-05-21T08:29:21;7.43;;;4.57;;
68989;SDS011;56046;47.270;11.368;2023-05-21T08:31:46;7.57;;;4.90;;
68989;SDS011;56046;47.270;11.368;2023-05-21T08:34:11;8.00;;;4.77;;
68989;SDS011;56046;47.270;11.368;2023-05-21T08:36:36;7.60;;;5.60;;
68989;SDS011;56046;47.270;11.368;2023-05-21T08:39:02;7.20;;;4.57;;
68989;SDS011;56046;47.270;11.368;2023-05-21T08:41:27;7.77;;;5.30;;
68989;SDS011;56046;47.270;11.368;2023-05-21T08:43:55;8.18;;;4.90;;
68989;SDS011;56046;47.270;11.368;2023-05-21T08:46:23;6.57;;;4.90;;
68989;SDS011;56046;47.270;11.368;2023-05-21T08:48:50;8.50;;;5.22;;
68989;SDS011;56046;47.270;11.368;2023-05-21T08:51:16;9.10;;;5.35;;
68989;SDS011;56046;47.270;11.368;2023-05-21T08:53:41;8.27;;;4.97;;
68989;SDS011;56046;47.270;11.368;2023-05-21T08:56:07;7.63;;;5.13;;
68989;SDS011;56046;47.270;11.368;2023-05-21T08:58:32;11.00;;;5.50;;
68989;SDS011;56046;47.270;11.368;2023-05-21T09:00:57;8.83;;;5.57;;
68989;SDS011;56046;47.270;11.368;2023-05-21T09:03:23;8.50;;;5.80;;
68989;SDS011;56046;47.270;11.368;2023-05-21T09:05:48;7.87;;;5.30;;
68989;SDS011;56046;47.270;11.368;2023-05-21T09:08:18;7.20;;;5.25;;
68989;SDS011;56046;47.270;11.368;2023-05-21T09:10:47;9.70;;;5.40;;
68989;SDS011;56046;47.270;11.368;2023-05-21T09:13:14;7.57;;;5.63;;
68989;SDS011;56046;47.270;11.368;2023-05-21T09:15:41;7.63;;;5.07;;
68989;SDS011;56046;47.270;11.368;2023-05-21T09:18:06;9.33;;;6.10;;
68989;SDS011;56046;47.270;11.368;2023-05-21T09:20:31;8.70;;;6.00;;
68989;SDS011;56046;47.270;11.368;2023-05-21T09:22:57;7.50;;;5.47;;
68989;SDS011;56046;47.270;11.368;2023-05-21T09:25:26;8.07;;;5.97;;
68989;SDS011;56046;47.270;11.368;2023-05-21T09:27:57;8.50;;;6.00;;
68989;SDS011;56046;47.270;11.368;2023-05-21T09:30:23;8.03;;;5.20;;
68989;SDS011;56046;47.270;11.368;2023-05-21T09:32:53;8.90;;;5.97;;
68989;SDS011;56046;47.270;11.368;2023-05-21T09:35:20;9.20;;;5.85;;
68989;SDS011;56046;47.270;11.368;2023-05-21T09:37:49;7.40;;;5.50;;
68989;SDS011;56046;47.270;11.368;2023-05-21T09:40:15;8.40;;;5.07;;
68989;SDS011;56046;47.270;11.368;2023-05-21T09:42:41;10.98;;;5.70;;
68989;SDS011;56046;47.270;11.368;2023-05-21T09:45:07;7.57;;;5.63;;
68989;SDS011;56046;47.270;11.368;2023-05-21T09:47:33;10.18;;;5.40;;
68989;SDS011;56046;47.270;11.368;2023-05-21T09:49:59;7.40;;;5.10;;
68989;SDS011;56046;47.270;11.368;2023-05-21T09:52:24;8.30;;;5.50;;
68989;SDS011;56046;47.270;11.368;2023-05-21T09:54:50;10.30;;;5.65;;
68989;SDS011;56046;47.270;11.368;2023-05-21T09:57:21;7.55;;;4.68;;
68989;SDS011;56046;47.270;11.368;2023-05-21T09:59:48;9.77;;;5.83;;
68989;SDS011;56046;47.270;11.368;2023-05-21T10:02:14;8.43;;;5.65;;
68989;SDS011;56046;47.270;11.368;2023-05-21T10:04:40;9.98;;;5.88;;
68989;SDS011;56046;47.270;11.368;2023-05-21T10:07:06;8.75;;;5.32;;
68989;SDS011;56046;47.270;11.368;2023-05-21T10:09:31;8.03;;;5.50;;
68989;SDS011;56046;47.270;11.368;2023-05-21T10:11:56;7.87;;;5.10;;
68989;SDS011;56046;47.270;11.368;2023-05-21T10:14:24;8.60;;;5.45;;
68989;SDS011;56046;47.270;11.368;2023-05-21T10:16:49;7.50;;;5.40;;
68989;SDS011;56046;47.270;11.368;2023-05-21T10:19:16;8.63;;;4.88;;
68989;SDS011;56046;47.270;11.368;2023-05-21T10:21:41;7.78;;;5.55;;
68989;SDS011;56046;47.270;11.368;2023-05-21T10:24:07;6.70;;;4.87;;
68989;SDS011;56046;47.270;11.368;2023-05-21T10:26:33;7.65;;;5.13;;
68989;SDS011;56046;47.270;11.368;2023-05-21T10:28:59;7.77;;;4.53;;
68989;SDS011;56046;47.270;11.368;2023-05-21T10:31:26;7.13;;;5.38;;
68989;SDS011;56046;47.270;11.368;2023-05-21T10:33:54;7.73;;;5.00;;
68989;SDS011;56046;47.270;11.368;2023-05-21T10:36:20;7.80;;;4.60;;
68989;SDS011;56046;47.270;11.368;2023-05-21T10:38:48;7.47;;;5.20;;
68989;SDS011;56046;47.270;11.368;2023-05-21T10:41:14;7.13;;;4.80;;
68989;SDS011;56046;47.270;11.368;2023-05-21T10:43:58;8.35;;;5.25;;
68989;SDS011;56046;47.270;11.368;2023-05-21T10:48:57;7.30;;;5.15;;
68989;SDS011;56046;47.270;11.368;2023-05-21T10:51:28;8.20;;;4.57;;
68989;SDS011;56046;47.270;11.368;2023-05-21T11:01:54;9.45;;;5.05;;
68989;SDS011;56046;47.270;11.368;2023-05-21T11:04:39;7.68;;;5.25;;
68989;SDS011;56046;47.270;11.368;2023-05-21T11:07:07;8.17;;;4.90;;
68989;SDS011;56046;47.270;11.368;2023-05-21T11:09:32;7.32;;;5.57;;
68989;SDS011;56046;47.270;11.368;2023-05-21T11:11:58;6.83;;;4.70;;
68989;SDS011;56046;47.270;11.368;2023-05-21T11:14:34;8.60;;;5.15;;
68989;SDS011;56046;47.270;11.368;2023-05-21T11:19:38;6.37;;;4.67;;
68989;SDS011;56046;47.270;11.368;2023-05-21T11:22:06;9.77;;;5.28;;
68989;SDS011;56046;47.270;11.368;2023-05-21T11:24:32;7.38;;;4.47;;
68989;SDS011;56046;47.270;11.368;2023-05-21T11:27:01;7.70;;;4.68;;
68989;SDS011;56046;47.270;11.368;2023-05-21T11:29:31;8.38;;;4.95;;
68989;SDS011;56046;47.270;11.368;2023-05-21T11:32:04;9.37;;;4.80;;
68989;SDS011;56046;47.270;11.368;2023-05-21T11:34:39;7.60;;;4.75;;
68989;SDS011;56046;47.270;11.368;2023-05-21T11:39:50;6.53;;;4.27;;
68989;SDS011;56046;47.270;11.368;2023-05-21T11:42:29;6.37;;;4.33;;
68989;SDS011;56046;47.270;11.368;2023-05-21T11:44:55;8.27;;;5.00;;
68989;SDS011;56046;47.270;11.368;2023-05-21T11:47:21;6.63;;;4.43;;
68989;SDS011;56046;47.270;11.368;2023-05-21T11:49:47;6.47;;;4.70;;
68989;SDS011;56046;47.270;11.368;2023-05-21T11:52:13;9.07;;;5.07;;
68989;SDS011;56046;47.270;11.368;2023-05-21T11:54:41;6.97;;;4.03;;
68989;SDS011;56046;47.270;11.368;2023-05-21T11:57:10;7.78;;;5.13;;
68989;SDS011;56046;47.270;11.368;2023-05-21T11:59:35;8.40;;;4.87;;
68989;SDS011;56046;47.270;11.368;2023-05-21T12:02:01;6.65;;;4.35;;
68989;SDS011;56046;47.270;11.368;2023-05-21T12:04:30;7.73;;;3.90;;
68989;SDS011;56046;47.270;11.368;2023-05-21T12:06:55;7.63;;;4.87;;
68989;SDS011;56046;47.270;11.368;2023-05-21T12:09:22;8.27;;;5.07;;
68989;SDS011;56046;47.270;11.368;2023-05-21T12:11:47;6.40;;;4.93;;
68989;SDS011;56046;47.270;11.368;2023-05-21T12:14:13;7.13;;;5.07;;
68989;SDS011;56046;47.270;11.368;2023-05-21T12:16:38;6.73;;;4.70;;
68989;SDS011;56046;47.270;11.368;2023-05-21T12:19:04;7.57;;;4.80;;
68989;SDS011;56046;47.270;11.368;2023-05-21T12:21:29;7.70;;;5.07;;
68989;SDS011;56046;47.270;11.368;2023-05-21T12:23:55;6.45;;;4.40;;
68989;SDS011;56046;47.270;11.368;2023-05-21T12:26:21;6.87;;;4.43;;
68989;SDS011;56046;47.270;11.368;2023-05-21T12:28:49;7.60;;;5.07;;
68989;SDS011;56046;47.270;11.368;2023-05-21T12:31:15;6.80;;;4.80;;
68989;SDS011;56046;47.270;11.368;2023-05-21T12:33:43;8.37;;;5.07;;
68989;SDS011;56046;47.270;11.368;2023-05-21T12:36:08;6.93;;;5.17;;
68989;SDS011;56046;47.270;11.368;2023-05-21T12:38:34;7.27;;;4.80;;
68989;SDS011;56046;47.270;11.368;2023-05-21T12:41:03;6.33;;;4.50;;
68989;SDS011;56046;47.270;11.368;2023-05-21T12:43:31;8.43;;;4.68;;
68989;SDS011;56046;47.270;11.368;2023-05-21T12:45:57;7.80;;;4.95;;
68989;SDS011;56046;47.270;11.368;2023-05-21T12:48:22;7.70;;;5.23;;
68989;SDS011;56046;47.270;11.368;2023-05-21T12:50:47;6.53;;;4.80;;
68989;SDS011;56046;47.270;11.368;2023-05-21T12:53:12;7.10;;;5.10;;
68989;SDS011;56046;47.270;11.368;2023-05-21T12:55:38;7.50;;;5.27;;
68989;SDS011;56046;47.270;11.368;2023-05-21T12:58:04;7.05;;;5.07;;
68989;SDS011;56046;47.270;11.368;2023-05-21T13:00:31;7.97;;;4.85;;
68989;SDS011;56046;47.270;11.368;2023-05-21T13:02:57;7.40;;;4.70;;
68989;SDS011;56046;47.270;11.368;2023-05-21T13:05:24;7.57;;;4.33;;
68989;SDS011;56046;47.270;11.368;2023-05-21T13:07:50;7.07;;;4.50;;
68989;SDS011;56046;47.270;11.368;2023-05-21T13:10:15;7.07;;;5.00;;
68989;SDS011;56046;47.270;11.368;2023-05-21T13:12:41;8.50;;;4.73;;
68989;SDS011;56046;47.270;11.368;2023-05-21T13:15:06;8.10;;;5.57;;
68989;SDS011;56046;47.270;11.368;2023-05-21T13:17:32;6.25;;;4.82;;
68989;SDS011;56046;47.270;11.368;2023-05-21T13:20:07;8.43;;;5.70;;
68989;SDS011;56046;47.270;11.368;2023-05-21T13:22:36;6.97;;;4.32;;
68989;SDS011;56046;47.270;11.368;2023-05-21T13:25:09;7.20;;;5.38;;
68989;SDS011;56046;47.270;11.368;2023-05-21T13:27:42;7.37;;;4.80;;
68989;SDS011;56046;47.270;11.368;2023-05-21T13:30:07;7.07;;;4.80;;
68989;SDS011;56046;47.270;11.368;2023-05-21T13:32:33;7.75;;;5.10;;
68989;SDS011;56046;47.270;11.368;2023-05-21T13:34:58;6.70;;;4.63;;
68989;SDS011;56046;47.270;11.368;2023-05-21T13:37:24;7.23;;;5.13;;
68989;SDS011;56046;47.270;11.368;2023-05-21T13:39:50;7.65;;;4.90;;
68989;SDS011;56046;47.270;11.368;2023-05-21T13:42:15;9.43;;;5.00;;
68989;SDS011;56046;47.270;11.368;2023-05-21T13:44:40;10.73;;;4.73;;
68989;SDS011;56046;47.270;11.368;2023-05-21T13:47:06;6.50;;;4.90;;
68989;SDS011;56046;47.270;11.368;2023-05-21T13:49:35;6.88;;;4.90;;
68989;SDS011;56046;47.270;11.368;2023-05-21T13:52:00;6.77;;;4.50;;
68989;SDS011;56046;47.270;11.368;2023-05-21T13:54:26;7.22;;;4.43;;
68989;SDS011;56046;47.270;11.368;2023-05-21T13:56:51;7.90;;;4.27;;
68989;SDS011;56046;47.270;11.368;2023-05-21T13:59:17;7.60;;;4.45;;
68989;SDS011;56046;47.270;11.368;2023-05-21T14:01:42;7.33;;;5.10;;
68989;SDS011;56046;47.270;11.368;2023-05-21T14:04:12;7.60;;;4.60;;
68989;SDS011;56046;47.270;11.368;2023-05-21T14:06:37;8.93;;;4.83;;
68989;SDS011;56046;47.270;11.368;2023-05-21T14:09:02;6.83;;;4.70;;
68989;SDS011;56046;47.270;11.368;2023-05-21T14:11:29;6.60;;;4.18;;
68989;SDS011;56046;47.270;11.368;2023-05-21T14:13:54;7.00;;;4.50;;
68989;SDS011;56046;47.270;11.368;2023-05-21T14:16:20;7.83;;;4.93;;
68989;SDS011;56046;47.270;11.368;2023-05-21T14:18:48;8.13;;;4.93;;
68989;SDS011;56046;47.270;11.368;2023-05-21T14:21:13;6.83;;;4.63;;
68989;SDS011;56046;47.270;11.368;2023-05-21T14:23:39;7.63;;;4.47;;
68989;SDS011;56046;47.270;11.368;2023-05-21T14:26:04;7.53;;;4.90;;
68989;SDS011;56046;47.270;11.368;2023-05-21T14:28:29;7.30;;;4.70;;
68989;SDS011;56046;47.270;11.368;2023-05-21T14:30:54;6.97;;;4.83;;
68989;SDS011;56046;47.270;11.368;2023-05-21T14:33:20;7.07;;;4.77;;
68989;SDS011;56046;47.270;11.368;2023-05-21T14:35:45;7.97;;;5.00;;
68989;SDS011;56046;47.270;11.368;2023-05-21T14:38:11;7.78;;;4.82;;
68989;SDS011;56046;47.270;11.368;2023-05-21T14:40:37;6.37;;;4.20;;